sensor_id;sensor_type;location;lat;lon;timestamp;P1;durP1;ratioP1;P2;durP2;ratioP2
679;SDS011;322;48.846;9.230;2023-12-20T00:01:22;6.03;;;1.30;;
679;SDS011;322;48.846;9.230;2023-12-20T00:03:50;7.17;;;1.50;;
679;SDS011;322;48.846;9.230;2023-12-20T00:06:18;6.83;;;1.40;;
679;SDS011;322;48.846;9.230;2023-12-20T00:08:47;7.20;;;1.30;;
679;SDS011;322;48.846;9.230;2023-12-20T00:11:15;7.10;;;1.50;;
679;SDS011;322;48.846;9.230;2023-12-20T00:13:44;6.60;;;1.30;;
679;SDS011;322;48.846;9.230;2023-12-20T00:16:17;6.97;;;1.50;;
679;SDS011;322;48.846;9.230;2023-12-20T00:18:45;6.40;;;1.40;;
679;SDS011;322;48.846;9.230;2023-12-20T00:21:13;6.10;;;1.17;;
679;SDS011;322;48.846;9.230;2023-12-20T00:23:41;6.40;;;1.20;;
679;SDS011;322;48.846;9.230;2023-12-20T00:26:09;6.93;;;1.60;;
679;SDS011;322;48.846;9.230;2023-12-20T00:28:37;7.07;;;1.60;;
679;SDS011;322;48.846;9.230;2023-12-20T00:31:06;6.10;;;1.20;;
679;SDS011;322;48.846;9.230;2023-12-20T00:33:34;7.10;;;1.40;;
679;SDS011;322;48.846;9.230;2023-12-20T00:36:04;6.57;;;1.20;;
679;SDS011;322;48.846;9.230;2023-12-20T00:38:33;6.70;;;1.50;;
679;SDS011;322;48.846;9.230;2023-12-20T00:41:01;7.23;;;1.33;;
679;SDS011;322;48.846;9.230;2023-12-20T00:43:31;7.50;;;1.40;;
679;SDS011;322;48.846;9.230;2023-12-20T00:45:59;6.60;;;1.30;;
679;SDS011;322;48.846;9.230;2023-12-20T00:48:29;6.60;;;1.20;;
679;SDS011;322;48.846;9.230;2023-12-20T00:50:57;6.50;;;1.30;;
679;SDS011;322;48.846;9.230;2023-12-20T00:53:25;6.70;;;1.60;;
679;SDS011;322;48.846;9.230;2023-12-20T00:55:53;7.47;;;1.30;;
679;SDS011;322;48.846;9.230;2023-12-20T00:58:21;6.67;;;1.30;;
679;SDS011;322;48.846;9.230;2023-12-20T01:00:49;7.53;;;1.50;;
679;SDS011;322;48.846;9.230;2023-12-20T01:03:17;6.87;;;1.30;;
679;SDS011;322;48.846;9.230;2023-12-20T01:05:47;6.90;;;1.70;;
679;SDS011;322;48.846;9.230;2023-12-20T01:08:15;7.33;;;1.93;;
679;SDS011;322;48.846;9.230;2023-12-20T01:10:42;6.43;;;1.53;;
679;SDS011;322;48.846;9.230;2023-12-20T01:13:10;6.67;;;1.30;;
679;SDS011;322;48.846;9.230;2023-12-20T01:15:38;7.10;;;1.97;;
679;SDS011;322;48.846;9.230;2023-12-20T01:18:06;8.57;;;2.47;;
679;SDS011;322;48.846;9.230;2023-12-20T01:20:35;7.70;;;2.30;;
679;SDS011;322;48.846;9.230;2023-12-20T01:23:04;8.90;;;1.83;;
679;SDS011;322;48.846;9.230;2023-12-20T01:25:32;7.50;;;2.30;;
679;SDS011;322;48.846;9.230;2023-12-20T01:28:00;9.70;;;2.10;;
679;SDS011;322;48.846;9.230;2023-12-20T01:30:29;7.37;;;2.10;;
679;SDS011;322;48.846;9.230;2023-12-20T01:32:59;7.10;;;1.97;;
679;SDS011;322;48.846;9.230;2023-12-20T01:35:27;7.77;;;2.07;;
679;SDS011;322;48.846;9.230;2023-12-20T01:37:55;8.80;;;2.67;;
679;SDS011;322;48.846;9.230;2023-12-20T01:40:25;7.80;;;2.30;;
679;SDS011;322;48.846;9.230;2023-12-20T01:43:02;8.20;;;2.27;;
679;SDS011;322;48.846;9.230;2023-12-20T01:45:35;8.07;;;2.77;;
679;SDS011;322;48.846;9.230;2023-12-20T01:48:03;8.00;;;2.60;;
679;SDS011;322;48.846;9.230;2023-12-20T01:50:33;7.07;;;2.10;;
679;SDS011;322;48.846;9.230;2023-12-20T01:53:04;8.47;;;2.37;;
679;SDS011;322;48.846;9.230;2023-12-20T01:55:36;9.17;;;2.53;;
679;SDS011;322;48.846;9.230;2023-12-20T01:58:07;8.07;;;2.47;;
679;SDS011;322;48.846;9.230;2023-12-20T02:00:37;7.63;;;2.30;;
679;SDS011;322;48.846;9.230;2023-12-20T02:03:05;7.77;;;2.30;;
679;SDS011;322;48.846;9.230;2023-12-20T02:05:34;8.30;;;2.90;;
679;SDS011;322;48.846;9.230;2023-12-20T02:08:03;10.40;;;3.10;;
679;SDS011;322;48.846;9.230;2023-12-20T02:10:32;7.30;;;2.20;;
679;SDS011;322;48.846;9.230;2023-12-20T02:13:01;7.50;;;2.40;;
679;SDS011;322;48.846;9.230;2023-12-20T02:15:29;7.87;;;2.53;;
679;SDS011;322;48.846;9.230;2023-12-20T02:17:57;8.13;;;2.97;;
679;SDS011;322;48.846;9.230;2023-12-20T02:20:26;8.37;;;2.90;;
679;SDS011;322;48.846;9.230;2023-12-20T02:22:55;8.20;;;2.80;;
679;SDS011;322;48.846;9.230;2023-12-20T02:25:23;7.93;;;2.93;;
679;SDS011;322;48.846;9.230;2023-12-20T02:27:51;8.70;;;3.03;;
679;SDS011;322;48.846;9.230;2023-12-20T02:30:20;7.83;;;2.90;;
679;SDS011;322;48.846;9.230;2023-12-20T02:32:48;8.50;;;3.10;;
679;SDS011;322;48.846;9.230;2023-12-20T02:35:17;7.53;;;2.30;;
679;SDS011;322;48.846;9.230;2023-12-20T02:37:45;7.70;;;2.73;;
679;SDS011;322;48.846;9.230;2023-12-20T02:40:14;8.07;;;2.97;;
679;SDS011;322;48.846;9.230;2023-12-20T02:42:43;8.40;;;2.83;;
679;SDS011;322;48.846;9.230;2023-12-20T02:45:11;8.43;;;3.07;;
679;SDS011;322;48.846;9.230;2023-12-20T02:47:39;8.07;;;2.80;;
679;SDS011;322;48.846;9.230;2023-12-20T02:50:06;8.73;;;3.23;;
679;SDS011;322;48.846;9.230;2023-12-20T02:52:35;8.30;;;3.50;;
679;SDS011;322;48.846;9.230;2023-12-20T02:55:03;9.37;;;3.30;;
679;SDS011;322;48.846;9.230;2023-12-20T02:57:32;8.07;;;3.23;;
679;SDS011;322;48.846;9.230;2023-12-20T03:00:03;8.73;;;3.50;;
679;SDS011;322;48.846;9.230;2023-12-20T03:02:34;7.83;;;3.23;;
679;SDS011;322;48.846;9.230;2023-12-20T03:05:02;10.80;;;3.60;;
679;SDS011;322;48.846;9.230;2023-12-20T03:07:30;8.77;;;3.10;;
679;SDS011;322;48.846;9.230;2023-12-20T03:10:06;8.83;;;3.13;;
679;SDS011;322;48.846;9.230;2023-12-20T03:12:47;10.03;;;2.90;;
679;SDS011;322;48.846;9.230;2023-12-20T03:15:15;8.53;;;2.60;;
679;SDS011;322;48.846;9.230;2023-12-20T03:17:43;5.90;;;0.70;;
679;SDS011;322;48.846;9.230;2023-12-20T03:20:11;6.10;;;0.80;;
679;SDS011;322;48.846;9.230;2023-12-20T03:22:43;6.23;;;0.80;;
679;SDS011;322;48.846;9.230;2023-12-20T03:25:11;6.00;;;0.60;;
679;SDS011;322;48.846;9.230;2023-12-20T03:27:39;5.93;;;0.70;;
679;SDS011;322;48.846;9.230;2023-12-20T03:30:10;5.90;;;0.70;;
679;SDS011;322;48.846;9.230;2023-12-20T03:32:38;5.97;;;0.57;;
679;SDS011;322;48.846;9.230;2023-12-20T03:35:06;5.67;;;0.40;;
679;SDS011;322;48.846;9.230;2023-12-20T03:37:34;5.90;;;0.47;;
679;SDS011;322;48.846;9.230;2023-12-20T03:40:03;5.70;;;0.50;;
679;SDS011;322;48.846;9.230;2023-12-20T03:42:31;6.50;;;0.60;;
679;SDS011;322;48.846;9.230;2023-12-20T03:44:59;5.70;;;0.40;;
679;SDS011;322;48.846;9.230;2023-12-20T03:47:29;5.80;;;0.47;;
679;SDS011;322;48.846;9.230;2023-12-20T03:49:57;5.60;;;0.40;;
679;SDS011;322;48.846;9.230;2023-12-20T03:52:25;5.80;;;0.40;;
679;SDS011;322;48.846;9.230;2023-12-20T03:54:53;5.83;;;0.60;;
679;SDS011;322;48.846;9.230;2023-12-20T03:57:21;6.33;;;0.60;;
679;SDS011;322;48.846;9.230;2023-12-20T03:59:49;5.60;;;0.40;;
679;SDS011;322;48.846;9.230;2023-12-20T04:02:17;5.60;;;0.37;;
679;SDS011;322;48.846;9.230;2023-12-20T04:04:47;5.63;;;0.40;;
679;SDS011;322;48.846;9.230;2023-12-20T04:07:15;6.10;;;0.50;;
679;SDS011;322;48.846;9.230;2023-12-20T04:09:43;5.80;;;0.40;;
679;SDS011;322;48.846;9.230;2023-12-20T04:12:11;5.93;;;0.50;;
679;SDS011;322;48.846;9.230;2023-12-20T04:14:39;5.67;;;0.50;;
679;SDS011;322;48.846;9.230;2023-12-20T04:17:07;6.00;;;0.63;;
679;SDS011;322;48.846;9.230;2023-12-20T04:19:35;5.80;;;0.53;;
679;SDS011;322;48.846;9.230;2023-12-20T04:22:04;5.87;;;0.50;;
679;SDS011;322;48.846;9.230;2023-12-20T04:24:32;5.70;;;0.40;;
679;SDS011;322;48.846;9.230;2023-12-20T04:27:00;5.70;;;0.40;;
679;SDS011;322;48.846;9.230;2023-12-20T04:29:29;5.87;;;0.50;;
679;SDS011;322;48.846;9.230;2023-12-20T04:31:57;5.97;;;0.70;;
679;SDS011;322;48.846;9.230;2023-12-20T04:34:24;5.60;;;0.40;;
679;SDS011;322;48.846;9.230;2023-12-20T04:36:53;5.67;;;0.40;;
679;SDS011;322;48.846;9.230;2023-12-20T04:39:22;5.73;;;0.50;;
679;SDS011;322;48.846;9.230;2023-12-20T04:41:50;5.97;;;0.50;;
679;SDS011;322;48.846;9.230;2023-12-20T04:44:18;6.90;;;0.70;;
679;SDS011;322;48.846;9.230;2023-12-20T04:46:46;5.80;;;0.50;;
679;SDS011;322;48.846;9.230;2023-12-20T04:49:14;5.90;;;0.70;;
679;SDS011;322;48.846;9.230;2023-12-20T04:51:42;5.80;;;0.50;;
679;SDS011;322;48.846;9.230;2023-12-20T04:54:10;6.50;;;0.60;;
679;SDS011;322;48.846;9.230;2023-12-20T04:56:41;6.10;;;0.70;;
679;SDS011;322;48.846;9.230;2023-12-20T04:59:09;6.33;;;0.60;;
679;SDS011;322;48.846;9.230;2023-12-20T05:01:37;10.13;;;0.70;;
679;SDS011;322;48.846;9.230;2023-12-20T05:04:05;5.70;;;0.40;;
679;SDS011;322;48.846;9.230;2023-12-20T05:06:33;7.20;;;0.60;;
679;SDS011;322;48.846;9.230;2023-12-20T05:09:01;6.00;;;0.50;;
679;SDS011;322;48.846;9.230;2023-12-20T05:11:29;6.20;;;0.70;;
679;SDS011;322;48.846;9.230;2023-12-20T05:13:59;7.80;;;0.60;;
679;SDS011;322;48.846;9.230;2023-12-20T05:16:27;6.00;;;0.50;;
679;SDS011;322;48.846;9.230;2023-12-20T05:18:55;6.70;;;0.87;;
679;SDS011;322;48.846;9.230;2023-12-20T05:21:23;6.30;;;0.80;;
679;SDS011;322;48.846;9.230;2023-12-20T05:23:51;6.70;;;0.93;;
679;SDS011;322;48.846;9.230;2023-12-20T05:26:19;6.80;;;1.00;;
679;SDS011;322;48.846;9.230;2023-12-20T05:28:47;5.93;;;0.50;;
679;SDS011;322;48.846;9.230;2023-12-20T05:31:16;5.63;;;0.40;;
679;SDS011;322;48.846;9.230;2023-12-20T05:33:44;7.50;;;1.23;;
679;SDS011;322;48.846;9.230;2023-12-20T05:36:12;7.83;;;0.77;;
679;SDS011;322;48.846;9.230;2023-12-20T05:38:41;5.90;;;0.60;;
679;SDS011;322;48.846;9.230;2023-12-20T05:41:09;6.30;;;0.70;;
679;SDS011;322;48.846;9.230;2023-12-20T05:43:37;5.80;;;0.90;;
679;SDS011;322;48.846;9.230;2023-12-20T05:46:05;6.00;;;0.60;;
679;SDS011;322;48.846;9.230;2023-12-20T05:48:35;5.90;;;0.67;;
679;SDS011;322;48.846;9.230;2023-12-20T05:51:03;5.73;;;0.60;;
679;SDS011;322;48.846;9.230;2023-12-20T05:53:31;6.30;;;0.90;;
679;SDS011;322;48.846;9.230;2023-12-20T05:55:59;10.20;;;1.10;;
679;SDS011;322;48.846;9.230;2023-12-20T05:58:27;6.27;;;0.90;;
679;SDS011;322;48.846;9.230;2023-12-20T06:00:56;8.43;;;0.90;;
679;SDS011;322;48.846;9.230;2023-12-20T06:03:24;6.50;;;0.90;;
679;SDS011;322;48.846;9.230;2023-12-20T06:05:53;6.50;;;1.07;;
679;SDS011;322;48.846;9.230;2023-12-20T06:08:38;7.80;;;0.70;;
679;SDS011;322;48.846;9.230;2023-12-20T06:11:06;6.27;;;0.90;;
679;SDS011;322;48.846;9.230;2023-12-20T06:13:34;6.53;;;1.07;;
679;SDS011;322;48.846;9.230;2023-12-20T06:16:05;6.00;;;0.90;;
679;SDS011;322;48.846;9.230;2023-12-20T06:18:33;6.70;;;1.03;;
679;SDS011;322;48.846;9.230;2023-12-20T06:21:04;6.90;;;1.20;;
679;SDS011;322;48.846;9.230;2023-12-20T06:23:33;7.03;;;1.13;;
679;SDS011;322;48.846;9.230;2023-12-20T06:26:01;6.47;;;0.80;;
679;SDS011;322;48.846;9.230;2023-12-20T06:28:29;6.53;;;1.00;;
679;SDS011;322;48.846;9.230;2023-12-20T06:31:00;6.10;;;1.00;;
679;SDS011;322;48.846;9.230;2023-12-20T06:33:29;7.00;;;1.10;;
679;SDS011;322;48.846;9.230;2023-12-20T06:35:59;6.80;;;1.27;;
679;SDS011;322;48.846;9.230;2023-12-20T06:38:29;9.07;;;1.70;;
679;SDS011;322;48.846;9.230;2023-12-20T06:40:57;6.90;;;1.20;;
679;SDS011;322;48.846;9.230;2023-12-20T06:43:28;7.00;;;1.40;;
679;SDS011;322;48.846;9.230;2023-12-20T06:46:14;6.67;;;1.00;;
679;SDS011;322;48.846;9.230;2023-12-20T06:48:43;6.90;;;1.70;;
679;SDS011;322;48.846;9.230;2023-12-20T06:51:12;6.47;;;0.90;;
679;SDS011;322;48.846;9.230;2023-12-20T06:53:43;7.40;;;1.53;;
679;SDS011;322;48.846;9.230;2023-12-20T06:56:11;6.77;;;1.20;;
679;SDS011;322;48.846;9.230;2023-12-20T06:58:43;6.80;;;1.40;;
679;SDS011;322;48.846;9.230;2023-12-20T07:01:11;6.80;;;1.50;;
679;SDS011;322;48.846;9.230;2023-12-20T07:03:40;6.97;;;1.30;;
679;SDS011;322;48.846;9.230;2023-12-20T07:06:17;7.70;;;1.73;;
679;SDS011;322;48.846;9.230;2023-12-20T07:08:47;8.20;;;1.83;;
679;SDS011;322;48.846;9.230;2023-12-20T07:11:17;8.10;;;2.63;;
679;SDS011;322;48.846;9.230;2023-12-20T07:13:45;8.73;;;2.37;;
679;SDS011;322;48.846;9.230;2023-12-20T07:16:13;8.30;;;2.90;;
679;SDS011;322;48.846;9.230;2023-12-20T07:18:41;8.23;;;3.57;;
679;SDS011;322;48.846;9.230;2023-12-20T07:21:09;8.50;;;3.20;;
679;SDS011;322;48.846;9.230;2023-12-20T07:23:36;9.63;;;4.50;;
679;SDS011;322;48.846;9.230;2023-12-20T07:26:05;10.13;;;4.10;;
679;SDS011;322;48.846;9.230;2023-12-20T07:28:33;10.10;;;4.77;;
679;SDS011;322;48.846;9.230;2023-12-20T07:31:01;11.13;;;4.37;;
679;SDS011;322;48.846;9.230;2023-12-20T07:33:29;10.70;;;4.00;;
679;SDS011;322;48.846;9.230;2023-12-20T07:36:05;11.10;;;3.97;;
679;SDS011;322;48.846;9.230;2023-12-20T07:38:33;8.87;;;3.70;;
679;SDS011;322;48.846;9.230;2023-12-20T07:41:01;10.73;;;4.70;;
679;SDS011;322;48.846;9.230;2023-12-20T07:43:31;10.70;;;4.33;;
679;SDS011;322;48.846;9.230;2023-12-20T07:46:03;9.20;;;3.47;;
679;SDS011;322;48.846;9.230;2023-12-20T07:48:32;11.83;;;3.63;;
679;SDS011;322;48.846;9.230;2023-12-20T07:51:00;10.07;;;3.67;;
679;SDS011;322;48.846;9.230;2023-12-20T07:53:28;8.97;;;3.60;;
679;SDS011;322;48.846;9.230;2023-12-20T07:55:56;8.43;;;3.60;;
679;SDS011;322;48.846;9.230;2023-12-20T07:58:24;9.20;;;3.10;;
679;SDS011;322;48.846;9.230;2023-12-20T08:01:12;9.23;;;3.60;;
679;SDS011;322;48.846;9.230;2023-12-20T08:03:40;9.10;;;3.70;;
679;SDS011;322;48.846;9.230;2023-12-20T08:06:08;9.40;;;4.10;;
679;SDS011;322;48.846;9.230;2023-12-20T08:08:36;9.53;;;3.87;;
679;SDS011;322;48.846;9.230;2023-12-20T08:11:04;9.07;;;4.00;;
679;SDS011;322;48.846;9.230;2023-12-20T08:13:32;10.67;;;4.50;;
679;SDS011;322;48.846;9.230;2023-12-20T08:16:00;11.47;;;3.83;;
679;SDS011;322;48.846;9.230;2023-12-20T08:18:32;8.93;;;3.90;;
679;SDS011;322;48.846;9.230;2023-12-20T08:21:01;9.57;;;4.20;;
679;SDS011;322;48.846;9.230;2023-12-20T08:23:29;9.03;;;3.83;;
679;SDS011;322;48.846;9.230;2023-12-20T08:25:58;9.77;;;4.07;;
679;SDS011;322;48.846;9.230;2023-12-20T08:28:30;9.67;;;4.17;;
679;SDS011;322;48.846;9.230;2023-12-20T08:30:58;9.50;;;3.67;;
679;SDS011;322;48.846;9.230;2023-12-20T08:33:27;10.53;;;4.07;;
679;SDS011;322;48.846;9.230;2023-12-20T08:35:56;9.23;;;3.47;;
679;SDS011;322;48.846;9.230;2023-12-20T08:38:24;10.70;;;3.67;;
679;SDS011;322;48.846;9.230;2023-12-20T08:40:52;10.20;;;3.80;;
679;SDS011;322;48.846;9.230;2023-12-20T08:43:20;11.00;;;3.70;;
679;SDS011;322;48.846;9.230;2023-12-20T08:45:48;8.77;;;3.47;;
679;SDS011;322;48.846;9.230;2023-12-20T08:48:16;11.40;;;4.27;;
679;SDS011;322;48.846;9.230;2023-12-20T08:50:44;9.97;;;4.43;;
679;SDS011;322;48.846;9.230;2023-12-20T08:53:16;8.87;;;3.80;;
679;SDS011;322;48.846;9.230;2023-12-20T08:55:44;10.80;;;3.83;;
679;SDS011;322;48.846;9.230;2023-12-20T08:58:15;8.53;;;3.40;;
679;SDS011;322;48.846;9.230;2023-12-20T09:00:43;9.50;;;3.70;;
679;SDS011;322;48.846;9.230;2023-12-20T09:03:12;10.43;;;3.33;;
679;SDS011;322;48.846;9.230;2023-12-20T09:05:47;10.77;;;3.47;;
679;SDS011;322;48.846;9.230;2023-12-20T09:08:16;8.47;;;3.47;;
679;SDS011;322;48.846;9.230;2023-12-20T09:10:48;9.13;;;3.03;;
679;SDS011;322;48.846;9.230;2023-12-20T09:13:15;10.03;;;3.70;;
679;SDS011;322;48.846;9.230;2023-12-20T09:15:44;8.60;;;3.10;;
679;SDS011;322;48.846;9.230;2023-12-20T09:18:12;8.83;;;3.00;;
679;SDS011;322;48.846;9.230;2023-12-20T09:20:40;8.30;;;3.13;;
679;SDS011;322;48.846;9.230;2023-12-20T09:23:10;9.43;;;3.03;;
679;SDS011;322;48.846;9.230;2023-12-20T09:25:39;12.07;;;3.20;;
679;SDS011;322;48.846;9.230;2023-12-20T09:28:07;8.30;;;2.30;;
679;SDS011;322;48.846;9.230;2023-12-20T09:30:35;7.10;;;2.33;;
679;SDS011;322;48.846;9.230;2023-12-20T09:33:06;7.50;;;2.33;;
679;SDS011;322;48.846;9.230;2023-12-20T09:35:34;8.10;;;2.67;;
679;SDS011;322;48.846;9.230;2023-12-20T09:38:03;8.10;;;1.93;;
679;SDS011;322;48.846;9.230;2023-12-20T09:40:32;8.40;;;2.20;;
679;SDS011;322;48.846;9.230;2023-12-20T09:43:03;8.57;;;1.90;;
679;SDS011;322;48.846;9.230;2023-12-20T09:45:32;8.30;;;2.03;;
679;SDS011;322;48.846;9.230;2023-12-20T09:48:00;7.47;;;1.40;;
679;SDS011;322;48.846;9.230;2023-12-20T09:50:31;7.77;;;1.93;;
679;SDS011;322;48.846;9.230;2023-12-20T09:53:00;7.50;;;1.77;;
679;SDS011;322;48.846;9.230;2023-12-20T09:55:31;10.07;;;1.90;;
679;SDS011;322;48.846;9.230;2023-12-20T09:58:00;7.87;;;1.60;;
679;SDS011;322;48.846;9.230;2023-12-20T10:00:29;7.10;;;1.33;;
679;SDS011;322;48.846;9.230;2023-12-20T10:02:58;11.33;;;1.60;;
679;SDS011;322;48.846;9.230;2023-12-20T10:05:28;9.70;;;1.40;;
679;SDS011;322;48.846;9.230;2023-12-20T10:07:57;7.93;;;1.30;;
679;SDS011;322;48.846;9.230;2023-12-20T10:10:28;7.73;;;1.40;;
679;SDS011;322;48.846;9.230;2023-12-20T10:13:10;9.90;;;1.10;;
679;SDS011;322;48.846;9.230;2023-12-20T10:15:41;8.07;;;2.17;;
679;SDS011;322;48.846;9.230;2023-12-20T10:18:09;9.13;;;1.90;;
679;SDS011;322;48.846;9.230;2023-12-20T10:20:40;7.43;;;1.10;;
679;SDS011;322;48.846;9.230;2023-12-20T10:23:10;6.97;;;1.23;;
679;SDS011;322;48.846;9.230;2023-12-20T10:25:38;8.70;;;1.70;;
679;SDS011;322;48.846;9.230;2023-12-20T10:28:08;6.70;;;1.10;;
679;SDS011;322;48.846;9.230;2023-12-20T10:30:38;8.40;;;1.60;;
679;SDS011;322;48.846;9.230;2023-12-20T10:33:08;8.17;;;1.77;;
679;SDS011;322;48.846;9.230;2023-12-20T10:35:38;10.47;;;1.30;;
679;SDS011;322;48.846;9.230;2023-12-20T10:38:11;9.10;;;1.50;;
679;SDS011;322;48.846;9.230;2023-12-20T10:40:41;14.00;;;1.30;;
679;SDS011;322;48.846;9.230;2023-12-20T10:43:10;13.40;;;2.00;;
679;SDS011;322;48.846;9.230;2023-12-20T10:45:40;9.07;;;1.40;;
679;SDS011;322;48.846;9.230;2023-12-20T10:48:11;6.90;;;1.50;;
679;SDS011;322;48.846;9.230;2023-12-20T10:50:39;12.37;;;1.77;;
679;SDS011;322;48.846;9.230;2023-12-20T10:53:09;9.10;;;1.70;;
679;SDS011;322;48.846;9.230;2023-12-20T10:55:38;7.43;;;1.40;;
679;SDS011;322;48.846;9.230;2023-12-20T10:58:20;8.70;;;1.23;;
679;SDS011;322;48.846;9.230;2023-12-20T11:00:51;11.03;;;1.63;;
679;SDS011;322;48.846;9.230;2023-12-20T11:03:32;7.07;;;1.37;;
679;SDS011;322;48.846;9.230;2023-12-20T11:06:04;8.97;;;0.90;;
679;SDS011;322;48.846;9.230;2023-12-20T11:08:44;7.83;;;1.63;;
679;SDS011;322;48.846;9.230;2023-12-20T11:11:20;8.57;;;1.23;;
679;SDS011;322;48.846;9.230;2023-12-20T11:13:54;6.80;;;1.13;;
679;SDS011;322;48.846;9.230;2023-12-20T11:16:25;7.53;;;0.97;;
679;SDS011;322;48.846;9.230;2023-12-20T11:19:08;8.03;;;1.50;;
679;SDS011;322;48.846;9.230;2023-12-20T11:21:40;6.90;;;1.00;;
679;SDS011;322;48.846;9.230;2023-12-20T11:24:09;8.23;;;1.40;;
679;SDS011;322;48.846;9.230;2023-12-20T11:26:37;7.03;;;1.20;;
679;SDS011;322;48.846;9.230;2023-12-20T11:31:59;7.70;;;1.00;;
679;SDS011;322;48.846;9.230;2023-12-20T11:34:32;7.60;;;1.47;;
679;SDS011;322;48.846;9.230;2023-12-20T11:37:02;9.60;;;1.77;;
679;SDS011;322;48.846;9.230;2023-12-20T11:39:30;6.97;;;1.27;;
679;SDS011;322;48.846;9.230;2023-12-20T11:42:03;7.03;;;1.30;;
679;SDS011;322;48.846;9.230;2023-12-20T11:44:33;12.03;;;1.67;;
679;SDS011;322;48.846;9.230;2023-12-20T11:47:01;8.70;;;1.20;;
679;SDS011;322;48.846;9.230;2023-12-20T11:49:33;7.70;;;1.37;;
679;SDS011;322;48.846;9.230;2023-12-20T11:52:01;8.27;;;1.47;;
679;SDS011;322;48.846;9.230;2023-12-20T11:54:32;9.50;;;2.00;;
679;SDS011;322;48.846;9.230;2023-12-20T11:57:00;7.90;;;1.50;;
679;SDS011;322;48.846;9.230;2023-12-20T11:59:31;7.23;;;1.30;;
679;SDS011;322;48.846;9.230;2023-12-20T12:01:59;8.17;;;1.37;;
679;SDS011;322;48.846;9.230;2023-12-20T12:04:28;9.77;;;1.70;;
679;SDS011;322;48.846;9.230;2023-12-20T12:06:57;10.23;;;3.07;;
679;SDS011;322;48.846;9.230;2023-12-20T12:09:27;7.20;;;1.40;;
679;SDS011;322;48.846;9.230;2023-12-20T12:11:54;6.73;;;1.30;;
679;SDS011;322;48.846;9.230;2023-12-20T12:14:23;9.43;;;2.40;;
679;SDS011;322;48.846;9.230;2023-12-20T12:16:51;8.23;;;1.40;;
679;SDS011;322;48.846;9.230;2023-12-20T12:19:20;11.00;;;1.50;;
679;SDS011;322;48.846;9.230;2023-12-20T12:21:49;12.43;;;2.50;;
679;SDS011;322;48.846;9.230;2023-12-20T12:24:21;9.00;;;1.40;;
679;SDS011;322;48.846;9.230;2023-12-20T12:26:52;9.80;;;2.03;;
679;SDS011;322;48.846;9.230;2023-12-20T12:29:20;10.33;;;2.27;;
679;SDS011;322;48.846;9.230;2023-12-20T12:31:48;8.70;;;1.57;;
679;SDS011;322;48.846;9.230;2023-12-20T12:34:17;7.00;;;1.30;;
679;SDS011;322;48.846;9.230;2023-12-20T12:36:45;13.20;;;1.57;;
679;SDS011;322;48.846;9.230;2023-12-20T12:39:14;8.03;;;1.73;;
679;SDS011;322;48.846;9.230;2023-12-20T12:41:46;7.70;;;1.70;;
679;SDS011;322;48.846;9.230;2023-12-20T12:44:14;8.77;;;1.60;;
679;SDS011;322;48.846;9.230;2023-12-20T12:46:43;9.03;;;1.93;;
679;SDS011;322;48.846;9.230;2023-12-20T12:49:12;7.47;;;2.10;;
679;SDS011;322;48.846;9.230;2023-12-20T12:51:40;8.77;;;1.70;;
679;SDS011;322;48.846;9.230;2023-12-20T12:54:09;10.47;;;2.03;;
679;SDS011;322;48.846;9.230;2023-12-20T12:56:39;7.50;;;1.70;;
679;SDS011;322;48.846;9.230;2023-12-20T12:59:08;6.93;;;1.47;;
679;SDS011;322;48.846;9.230;2023-12-20T13:01:37;8.47;;;1.30;;
679;SDS011;322;48.846;9.230;2023-12-20T13:04:05;7.53;;;1.50;;
679;SDS011;322;48.846;9.230;2023-12-20T13:06:37;6.60;;;1.40;;
679;SDS011;322;48.846;9.230;2023-12-20T13:09:07;9.30;;;1.20;;
679;SDS011;322;48.846;9.230;2023-12-20T13:11:35;9.43;;;1.90;;
679;SDS011;322;48.846;9.230;2023-12-20T13:14:03;12.10;;;1.60;;
679;SDS011;322;48.846;9.230;2023-12-20T13:16:33;10.70;;;1.60;;
679;SDS011;322;48.846;9.230;2023-12-20T13:19:02;7.20;;;1.30;;
679;SDS011;322;48.846;9.230;2023-12-20T13:21:30;9.00;;;1.77;;
679;SDS011;322;48.846;9.230;2023-12-20T13:23:58;6.70;;;1.13;;
679;SDS011;322;48.846;9.230;2023-12-20T13:26:26;8.60;;;1.30;;
679;SDS011;322;48.846;9.230;2023-12-20T13:28:54;6.23;;;1.13;;
679;SDS011;322;48.846;9.230;2023-12-20T13:31:22;7.13;;;0.97;;
679;SDS011;322;48.846;9.230;2023-12-20T13:33:52;7.13;;;1.20;;
679;SDS011;322;48.846;9.230;2023-12-20T13:36:20;8.00;;;1.27;;
679;SDS011;322;48.846;9.230;2023-12-20T13:38:48;8.37;;;1.50;;
679;SDS011;322;48.846;9.230;2023-12-20T13:41:16;8.20;;;1.07;;
679;SDS011;322;48.846;9.230;2023-12-20T13:43:44;8.07;;;1.00;;
679;SDS011;322;48.846;9.230;2023-12-20T13:46:12;8.13;;;1.60;;
679;SDS011;322;48.846;9.230;2023-12-20T13:48:41;11.63;;;1.27;;
679;SDS011;322;48.846;9.230;2023-12-20T13:51:10;9.27;;;1.20;;
679;SDS011;322;48.846;9.230;2023-12-20T13:53:38;9.43;;;1.50;;
679;SDS011;322;48.846;9.230;2023-12-20T13:56:06;7.03;;;1.30;;
679;SDS011;322;48.846;9.230;2023-12-20T13:58:34;7.90;;;1.33;;
679;SDS011;322;48.846;9.230;2023-12-20T14:01:04;6.73;;;1.20;;
679;SDS011;322;48.846;9.230;2023-12-20T14:03:32;6.73;;;1.30;;
679;SDS011;322;48.846;9.230;2023-12-20T14:06:00;10.50;;;1.30;;
679;SDS011;322;48.846;9.230;2023-12-20T14:08:29;8.07;;;1.40;;
679;SDS011;322;48.846;9.230;2023-12-20T14:10:57;7.83;;;1.30;;
679;SDS011;322;48.846;9.230;2023-12-20T14:13:27;8.43;;;1.43;;
679;SDS011;322;48.846;9.230;2023-12-20T14:15:55;11.63;;;1.50;;
679;SDS011;322;48.846;9.230;2023-12-20T14:18:25;12.67;;;2.43;;
679;SDS011;322;48.846;9.230;2023-12-20T14:20:53;8.07;;;1.57;;
679;SDS011;322;48.846;9.230;2023-12-20T14:23:21;8.93;;;1.70;;
679;SDS011;322;48.846;9.230;2023-12-20T14:25:51;9.13;;;1.87;;
679;SDS011;322;48.846;9.230;2023-12-20T14:28:19;9.70;;;1.80;;
679;SDS011;322;48.846;9.230;2023-12-20T14:30:47;11.00;;;1.37;;
679;SDS011;322;48.846;9.230;2023-12-20T14:33:16;8.30;;;1.50;;
679;SDS011;322;48.846;9.230;2023-12-20T14:35:47;8.40;;;1.83;;
679;SDS011;322;48.846;9.230;2023-12-20T14:38:15;9.70;;;1.37;;
679;SDS011;322;48.846;9.230;2023-12-20T14:40:43;12.60;;;2.10;;
679;SDS011;322;48.846;9.230;2023-12-20T14:43:12;12.40;;;1.67;;
679;SDS011;322;48.846;9.230;2023-12-20T14:45:40;8.63;;;2.03;;
679;SDS011;322;48.846;9.230;2023-12-20T14:48:08;9.77;;;1.90;;
679;SDS011;322;48.846;9.230;2023-12-20T14:50:36;7.47;;;1.40;;
679;SDS011;322;48.846;9.230;2023-12-20T14:53:06;8.83;;;2.17;;
679;SDS011;322;48.846;9.230;2023-12-20T14:55:35;8.80;;;1.50;;
679;SDS011;322;48.846;9.230;2023-12-20T14:58:03;9.00;;;1.43;;
679;SDS011;322;48.846;9.230;2023-12-20T15:00:34;8.60;;;2.07;;
679;SDS011;322;48.846;9.230;2023-12-20T15:03:03;9.33;;;1.60;;
679;SDS011;322;48.846;9.230;2023-12-20T15:05:35;9.80;;;1.87;;
679;SDS011;322;48.846;9.230;2023-12-20T15:08:06;9.97;;;1.70;;
679;SDS011;322;48.846;9.230;2023-12-20T15:10:34;9.80;;;1.83;;
679;SDS011;322;48.846;9.230;2023-12-20T15:13:02;10.00;;;1.30;;
679;SDS011;322;48.846;9.230;2023-12-20T15:15:31;7.47;;;1.43;;
679;SDS011;322;48.846;9.230;2023-12-20T15:18:01;7.30;;;1.80;;
679;SDS011;322;48.846;9.230;2023-12-20T15:20:30;11.30;;;1.80;;
679;SDS011;322;48.846;9.230;2023-12-20T15:23:00;13.77;;;2.13;;
679;SDS011;322;48.846;9.230;2023-12-20T15:25:31;12.67;;;1.90;;
679;SDS011;322;48.846;9.230;2023-12-20T15:27:59;8.80;;;1.70;;
679;SDS011;322;48.846;9.230;2023-12-20T15:30:28;8.47;;;2.30;;
679;SDS011;322;48.846;9.230;2023-12-20T15:32:57;10.93;;;2.00;;
679;SDS011;322;48.846;9.230;2023-12-20T15:35:26;6.90;;;1.40;;
679;SDS011;322;48.846;9.230;2023-12-20T15:37:54;8.90;;;1.60;;
679;SDS011;322;48.846;9.230;2023-12-20T15:40:22;8.43;;;1.97;;
679;SDS011;322;48.846;9.230;2023-12-20T15:42:51;10.43;;;1.70;;
679;SDS011;322;48.846;9.230;2023-12-20T15:45:19;8.20;;;1.43;;
679;SDS011;322;48.846;9.230;2023-12-20T15:47:47;8.30;;;1.67;;
679;SDS011;322;48.846;9.230;2023-12-20T15:50:16;7.60;;;1.33;;
679;SDS011;322;48.846;9.230;2023-12-20T15:52:46;9.77;;;1.77;;
679;SDS011;322;48.846;9.230;2023-12-20T15:55:14;10.37;;;1.80;;
679;SDS011;322;48.846;9.230;2023-12-20T15:57:42;7.47;;;1.47;;